sensor_id;sensor_type;location;lat;lon;timestamp;P1;durP1;ratioP1;P2;durP2;ratioP2
3747;SDS011;1889;50.058;8.688;2022-09-29T00:01:44;1.50;;;1.40;;
3747;SDS011;1889;50.058;8.688;2022-09-29T00:04:14;2.77;;;1.60;;
3747;SDS011;1889;50.058;8.688;2022-09-29T00:06:43;1.70;;;1.60;;
3747;SDS011;1889;50.058;8.688;2022-09-29T00:09:13;1.50;;;1.40;;
3747;SDS011;1889;50.058;8.688;2022-09-29T00:11:42;1.80;;;1.70;;
3747;SDS011;1889;50.058;8.688;2022-09-29T00:14:11;1.50;;;1.40;;
3747;SDS011;1889;50.058;8.688;2022-09-29T00:16:41;1.62;;;1.52;;
3747;SDS011;1889;50.058;8.688;2022-09-29T00:19:10;2.83;;;1.70;;
3747;SDS011;1889;50.058;8.688;2022-09-29T00:21:39;1.80;;;1.70;;
3747;SDS011;1889;50.058;8.688;2022-09-29T00:24:09;3.33;;;1.57;;
3747;SDS011;1889;50.058;8.688;2022-09-29T00:26:38;1.30;;;1.20;;
3747;SDS011;1889;50.058;8.688;2022-09-29T00:29:08;1.70;;;1.60;;
3747;SDS011;1889;50.058;8.688;2022-09-29T00:31:37;1.70;;;1.35;;
3747;SDS011;1889;50.058;8.688;2022-09-29T00:34:07;1.70;;;1.52;;
3747;SDS011;1889;50.058;8.688;2022-09-29T00:36:36;2.52;;;1.70;;
3747;SDS011;1889;50.058;8.688;2022-09-29T00:39:06;1.82;;;1.20;;
3747;SDS011;1889;50.058;8.688;2022-09-29T00:41:36;2.00;;;1.90;;
3747;SDS011;1889;50.058;8.688;2022-09-29T00:44:50;1.80;;;1.70;;
3747;SDS011;1889;50.058;8.688;2022-09-29T00:46:52;2.70;;;2.10;;
3747;SDS011;1889;50.058;8.688;2022-09-29T00:49:26;2.05;;;1.70;;
3747;SDS011;1889;50.058;8.688;2022-09-29T00:52:07;2.22;;;1.57;;
3747;SDS011;1889;50.058;8.688;2022-09-29T00:54:44;3.25;;;1.90;;
3747;SDS011;1889;50.058;8.688;2022-09-29T00:57:18;1.70;;;1.60;;
3747;SDS011;1889;50.058;8.688;2022-09-29T01:00:04;1.50;;;1.40;;
3747;SDS011;1889;50.058;8.688;2022-09-29T01:02:42;1.77;;;1.67;;
3747;SDS011;1889;50.058;8.688;2022-09-29T01:05:14;2.27;;;1.75;;
3747;SDS011;1889;50.058;8.688;2022-09-29T01:07:45;3.27;;;1.50;;
3747;SDS011;1889;50.058;8.688;2022-09-29T01:10:15;2.05;;;1.70;;
3747;SDS011;1889;50.058;8.688;2022-09-29T01:12:46;2.25;;;2.05;;
3747;SDS011;1889;50.058;8.688;2022-09-29T01:15:17;1.37;;;1.27;;
3747;SDS011;1889;50.058;8.688;2022-09-29T01:17:48;2.35;;;1.60;;
3747;SDS011;1889;50.058;8.688;2022-09-29T01:20:18;3.75;;;1.77;;
3747;SDS011;1889;50.058;8.688;2022-09-29T01:25:54;2.08;;;1.62;;
3747;SDS011;1889;50.058;8.688;2022-09-29T01:28:39;3.58;;;1.80;;
3747;SDS011;1889;50.058;8.688;2022-09-29T01:31:33;1.60;;;1.50;;
3747;SDS011;1889;50.058;8.688;2022-09-29T01:34:20;3.02;;;1.85;;
3747;SDS011;1889;50.058;8.688;2022-09-29T01:39:40;4.33;;;1.87;;
3747;SDS011;1889;50.058;8.688;2022-09-29T01:42:16;1.70;;;1.60;;
3747;SDS011;1889;50.058;8.688;2022-09-29T01:44:48;3.40;;;1.82;;
3747;SDS011;1889;50.058;8.688;2022-09-29T01:47:35;1.60;;;1.50;;
3747;SDS011;1889;50.058;8.688;2022-09-29T01:50:21;2.60;;;1.60;;
3747;SDS011;1889;50.058;8.688;2022-09-29T01:52:53;4.37;;;1.57;;
3747;SDS011;1889;50.058;8.688;2022-09-29T01:55:25;1.92;;;1.40;;
3747;SDS011;1889;50.058;8.688;2022-09-29T01:57:57;3.02;;;1.60;;
3747;SDS011;1889;50.058;8.688;2022-09-29T02:00:34;1.52;;;1.40;;
3747;SDS011;1889;50.058;8.688;2022-09-29T02:03:14;2.15;;;1.45;;
3747;SDS011;1889;50.058;8.688;2022-09-29T02:05:49;2.35;;;2.08;;
3747;SDS011;1889;50.058;8.688;2022-09-29T02:08:24;3.77;;;1.60;;
3747;SDS011;1889;50.058;8.688;2022-09-29T02:11:03;2.20;;;1.85;;
3747;SDS011;1889;50.058;8.688;2022-09-29T02:13:37;1.70;;;1.60;;
3747;SDS011;1889;50.058;8.688;2022-09-29T02:16:09;2.60;;;1.30;;
3747;SDS011;1889;50.058;8.688;2022-09-29T02:18:47;1.65;;;1.55;;
3747;SDS011;1889;50.058;8.688;2022-09-29T02:21:25;1.70;;;1.60;;
3747;SDS011;1889;50.058;8.688;2022-09-29T02:23:55;2.95;;;1.70;;
3747;SDS011;1889;50.058;8.688;2022-09-29T02:26:25;2.05;;;1.85;;
3747;SDS011;1889;50.058;8.688;2022-09-29T02:28:57;1.90;;;1.70;;
3747;SDS011;1889;50.058;8.688;2022-09-29T02:31:27;1.95;;;1.62;;
3747;SDS011;1889;50.058;8.688;2022-09-29T02:33:57;1.85;;;1.65;;
3747;SDS011;1889;50.058;8.688;2022-09-29T02:42:12;1.55;;;1.45;;
3747;SDS011;1889;50.058;8.688;2022-09-29T02:45:06;1.45;;;1.27;;
3747;SDS011;1889;50.058;8.688;2022-09-29T02:47:50;2.10;;;1.80;;
3747;SDS011;1889;50.058;8.688;2022-09-29T02:56:02;1.52;;;1.30;;
3747;SDS011;1889;50.058;8.688;2022-09-29T02:58:37;2.20;;;1.77;;
3747;SDS011;1889;50.058;8.688;2022-09-29T03:01:19;1.52;;;1.30;;
3747;SDS011;1889;50.058;8.688;2022-09-29T03:03:48;3.08;;;1.60;;
3747;SDS011;1889;50.058;8.688;2022-09-29T03:06:18;1.62;;;1.40;;
3747;SDS011;1889;50.058;8.688;2022-09-29T03:08:47;1.60;;;1.50;;
3747;SDS011;1889;50.058;8.688;2022-09-29T03:11:17;1.75;;;1.65;;
3747;SDS011;1889;50.058;8.688;2022-09-29T03:13:48;2.45;;;1.60;;
3747;SDS011;1889;50.058;8.688;2022-09-29T03:16:17;2.83;;;2.02;;
3747;SDS011;1889;50.058;8.688;2022-09-29T03:18:46;2.10;;;2.00;;
3747;SDS011;1889;50.058;8.688;2022-09-29T03:21:16;3.05;;;2.10;;
3747;SDS011;1889;50.058;8.688;2022-09-29T03:23:45;1.77;;;1.67;;
3747;SDS011;1889;50.058;8.688;2022-09-29T03:26:14;1.77;;;1.67;;
3747;SDS011;1889;50.058;8.688;2022-09-29T03:28:44;3.62;;;2.15;;
3747;SDS011;1889;50.058;8.688;2022-09-29T03:31:13;2.95;;;2.05;;
3747;SDS011;1889;50.058;8.688;2022-09-29T03:33:42;2.33;;;2.05;;
3747;SDS011;1889;50.058;8.688;2022-09-29T03:36:11;2.47;;;2.12;;
3747;SDS011;1889;50.058;8.688;2022-09-29T03:38:41;4.33;;;2.65;;
3747;SDS011;1889;50.058;8.688;2022-09-29T03:41:11;3.70;;;2.70;;
3747;SDS011;1889;50.058;8.688;2022-09-29T03:43:42;6.35;;;3.27;;
3747;SDS011;1889;50.058;8.688;2022-09-29T03:46:11;7.40;;;3.62;;
3747;SDS011;1889;50.058;8.688;2022-09-29T03:48:40;7.33;;;3.60;;
3747;SDS011;1889;50.058;8.688;2022-09-29T03:51:10;6.75;;;3.62;;
3747;SDS011;1889;50.058;8.688;2022-09-29T03:53:39;6.35;;;3.52;;
3747;SDS011;1889;50.058;8.688;2022-09-29T03:56:08;10.82;;;4.37;;
3747;SDS011;1889;50.058;8.688;2022-09-29T03:58:38;10.08;;;4.53;;
3747;SDS011;1889;50.058;8.688;2022-09-29T04:01:07;9.88;;;4.62;;
3747;SDS011;1889;50.058;8.688;2022-09-29T04:03:37;9.25;;;4.90;;
3747;SDS011;1889;50.058;8.688;2022-09-29T04:06:06;7.53;;;4.55;;
3747;SDS011;1889;50.058;8.688;2022-09-29T04:08:35;7.28;;;4.95;;
3747;SDS011;1889;50.058;8.688;2022-09-29T04:11:05;9.73;;;5.10;;
3747;SDS011;1889;50.058;8.688;2022-09-29T04:13:34;8.80;;;5.55;;
3747;SDS011;1889;50.058;8.688;2022-09-29T04:16:04;8.55;;;5.60;;
3747;SDS011;1889;50.058;8.688;2022-09-29T04:18:35;11.70;;;5.12;;
3747;SDS011;1889;50.058;8.688;2022-09-29T04:21:05;8.90;;;5.10;;
3747;SDS011;1889;50.058;8.688;2022-09-29T04:23:35;10.32;;;6.42;;
3747;SDS011;1889;50.058;8.688;2022-09-29T04:26:05;11.48;;;5.55;;
3747;SDS011;1889;50.058;8.688;2022-09-29T04:28:35;9.45;;;5.45;;
3747;SDS011;1889;50.058;8.688;2022-09-29T04:31:05;13.18;;;6.08;;
3747;SDS011;1889;50.058;8.688;2022-09-29T04:33:35;10.28;;;5.65;;
3747;SDS011;1889;50.058;8.688;2022-09-29T04:36:06;14.00;;;7.22;;
3747;SDS011;1889;50.058;8.688;2022-09-29T04:38:35;15.05;;;6.25;;
3747;SDS011;1889;50.058;8.688;2022-09-29T04:41:04;14.58;;;6.85;;
3747;SDS011;1889;50.058;8.688;2022-09-29T04:43:34;14.30;;;6.30;;
3747;SDS011;1889;50.058;8.688;2022-09-29T04:46:04;14.83;;;6.10;;
3747;SDS011;1889;50.058;8.688;2022-09-29T04:48:35;11.85;;;6.30;;
3747;SDS011;1889;50.058;8.688;2022-09-29T04:51:04;10.53;;;5.80;;
3747;SDS011;1889;50.058;8.688;2022-09-29T04:53:36;15.03;;;6.10;;
3747;SDS011;1889;50.058;8.688;2022-09-29T04:56:06;11.80;;;5.33;;
3747;SDS011;1889;50.058;8.688;2022-09-29T04:58:36;8.28;;;5.62;;
3747;SDS011;1889;50.058;8.688;2022-09-29T05:01:06;12.58;;;6.47;;
3747;SDS011;1889;50.058;8.688;2022-09-29T05:03:39;12.05;;;5.90;;
3747;SDS011;1889;50.058;8.688;2022-09-29T05:06:09;10.63;;;5.22;;
3747;SDS011;1889;50.058;8.688;2022-09-29T05:08:38;13.85;;;5.67;;
3747;SDS011;1889;50.058;8.688;2022-09-29T05:11:08;9.10;;;5.45;;
3747;SDS011;1889;50.058;8.688;2022-09-29T05:13:38;13.38;;;6.45;;
3747;SDS011;1889;50.058;8.688;2022-09-29T05:16:07;10.05;;;5.25;;
3747;SDS011;1889;50.058;8.688;2022-09-29T05:18:37;11.95;;;5.85;;
3747;SDS011;1889;50.058;8.688;2022-09-29T05:21:06;10.35;;;6.30;;
3747;SDS011;1889;50.058;8.688;2022-09-29T05:23:36;10.25;;;5.12;;
3747;SDS011;1889;50.058;8.688;2022-09-29T05:26:05;7.12;;;5.40;;
3747;SDS011;1889;50.058;8.688;2022-09-29T05:28:36;10.65;;;6.10;;
3747;SDS011;1889;50.058;8.688;2022-09-29T05:31:07;9.93;;;6.10;;
3747;SDS011;1889;50.058;8.688;2022-09-29T05:33:37;9.40;;;5.25;;
3747;SDS011;1889;50.058;8.688;2022-09-29T05:36:09;11.30;;;5.53;;
3747;SDS011;1889;50.058;8.688;2022-09-29T05:38:39;7.87;;;5.35;;
3747;SDS011;1889;50.058;8.688;2022-09-29T05:41:10;8.55;;;5.25;;
3747;SDS011;1889;50.058;8.688;2022-09-29T05:43:40;13.05;;;6.20;;
3747;SDS011;1889;50.058;8.688;2022-09-29T05:46:10;8.73;;;5.70;;
3747;SDS011;1889;50.058;8.688;2022-09-29T05:48:39;9.18;;;5.70;;
3747;SDS011;1889;50.058;8.688;2022-09-29T05:51:10;8.10;;;5.58;;
3747;SDS011;1889;50.058;8.688;2022-09-29T05:53:41;8.55;;;5.37;;
3747;SDS011;1889;50.058;8.688;2022-09-29T05:56:12;9.55;;;5.62;;
3747;SDS011;1889;50.058;8.688;2022-09-29T05:58:43;9.83;;;5.97;;
3747;SDS011;1889;50.058;8.688;2022-09-29T06:01:14;10.50;;;5.53;;
3747;SDS011;1889;50.058;8.688;2022-09-29T06:03:48;9.13;;;6.30;;
3747;SDS011;1889;50.058;8.688;2022-09-29T06:06:21;13.58;;;7.30;;
3747;SDS011;1889;50.058;8.688;2022-09-29T06:08:55;11.57;;;6.47;;
3747;SDS011;1889;50.058;8.688;2022-09-29T06:11:28;10.88;;;6.37;;
3747;SDS011;1889;50.058;8.688;2022-09-29T06:13:58;11.85;;;7.10;;
3747;SDS011;1889;50.058;8.688;2022-09-29T06:16:30;10.48;;;6.40;;
3747;SDS011;1889;50.058;8.688;2022-09-29T06:19:00;12.10;;;6.62;;
3747;SDS011;1889;50.058;8.688;2022-09-29T06:21:32;11.57;;;6.00;;
3747;SDS011;1889;50.058;8.688;2022-09-29T06:24:03;13.55;;;6.65;;
3747;SDS011;1889;50.058;8.688;2022-09-29T06:26:33;11.70;;;6.37;;
3747;SDS011;1889;50.058;8.688;2022-09-29T06:29:03;11.93;;;6.85;;
3747;SDS011;1889;50.058;8.688;2022-09-29T06:31:32;9.88;;;6.47;;
3747;SDS011;1889;50.058;8.688;2022-09-29T06:34:02;8.58;;;5.42;;
3747;SDS011;1889;50.058;8.688;2022-09-29T06:36:33;9.28;;;6.67;;
3747;SDS011;1889;50.058;8.688;2022-09-29T06:39:27;9.70;;;6.03;;
3747;SDS011;1889;50.058;8.688;2022-09-29T06:41:57;9.43;;;6.35;;
3747;SDS011;1889;50.058;8.688;2022-09-29T06:44:26;11.08;;;6.15;;
3747;SDS011;1889;50.058;8.688;2022-09-29T06:46:57;11.08;;;5.80;;
3747;SDS011;1889;50.058;8.688;2022-09-29T06:49:26;10.10;;;6.40;;
3747;SDS011;1889;50.058;8.688;2022-09-29T06:51:56;8.75;;;5.85;;
3747;SDS011;1889;50.058;8.688;2022-09-29T06:54:25;11.70;;;5.87;;
3747;SDS011;1889;50.058;8.688;2022-09-29T06:56:54;11.40;;;6.50;;
3747;SDS011;1889;50.058;8.688;2022-09-29T06:59:24;9.43;;;6.25;;
3747;SDS011;1889;50.058;8.688;2022-09-29T07:01:53;8.90;;;6.08;;
3747;SDS011;1889;50.058;8.688;2022-09-29T07:04:22;9.33;;;6.22;;
3747;SDS011;1889;50.058;8.688;2022-09-29T07:06:52;11.38;;;6.95;;
3747;SDS011;1889;50.058;8.688;2022-09-29T07:09:21;9.68;;;6.12;;
3747;SDS011;1889;50.058;8.688;2022-09-29T07:11:51;7.97;;;5.62;;
3747;SDS011;1889;50.058;8.688;2022-09-29T07:14:21;9.80;;;6.12;;
3747;SDS011;1889;50.058;8.688;2022-09-29T07:16:52;9.35;;;6.17;;
3747;SDS011;1889;50.058;8.688;2022-09-29T07:19:21;8.38;;;5.22;;
3747;SDS011;1889;50.058;8.688;2022-09-29T07:21:51;7.15;;;5.58;;
3747;SDS011;1889;50.058;8.688;2022-09-29T07:24:20;8.95;;;6.17;;
3747;SDS011;1889;50.058;8.688;2022-09-29T07:26:51;8.08;;;5.50;;
3747;SDS011;1889;50.058;8.688;2022-09-29T07:29:20;6.90;;;5.85;;
3747;SDS011;1889;50.058;8.688;2022-09-29T07:31:50;8.33;;;5.55;;
3747;SDS011;1889;50.058;8.688;2022-09-29T07:34:21;9.30;;;6.22;;
3747;SDS011;1889;50.058;8.688;2022-09-29T07:36:50;10.58;;;5.80;;
3747;SDS011;1889;50.058;8.688;2022-09-29T07:39:20;7.95;;;5.75;;
3747;SDS011;1889;50.058;8.688;2022-09-29T07:41:49;8.78;;;5.37;;
3747;SDS011;1889;50.058;8.688;2022-09-29T07:44:18;10.25;;;6.08;;
3747;SDS011;1889;50.058;8.688;2022-09-29T07:46:48;9.18;;;5.60;;
3747;SDS011;1889;50.058;8.688;2022-09-29T07:49:17;8.68;;;6.20;;
3747;SDS011;1889;50.058;8.688;2022-09-29T07:51:47;8.43;;;5.87;;
3747;SDS011;1889;50.058;8.688;2022-09-29T07:54:16;11.63;;;7.28;;
3747;SDS011;1889;50.058;8.688;2022-09-29T07:56:46;10.20;;;6.33;;
3747;SDS011;1889;50.058;8.688;2022-09-29T07:59:15;9.78;;;6.85;;
3747;SDS011;1889;50.058;8.688;2022-09-29T08:01:44;7.78;;;5.85;;
3747;SDS011;1889;50.058;8.688;2022-09-29T08:04:14;9.48;;;6.65;;
3747;SDS011;1889;50.058;8.688;2022-09-29T08:06:43;9.80;;;6.10;;
3747;SDS011;1889;50.058;8.688;2022-09-29T08:09:13;9.68;;;6.33;;
3747;SDS011;1889;50.058;8.688;2022-09-29T08:11:42;11.30;;;7.00;;
3747;SDS011;1889;50.058;8.688;2022-09-29T08:14:11;11.25;;;6.35;;
3747;SDS011;1889;50.058;8.688;2022-09-29T08:16:41;9.43;;;6.83;;
3747;SDS011;1889;50.058;8.688;2022-09-29T08:19:10;9.65;;;6.58;;
3747;SDS011;1889;50.058;8.688;2022-09-29T08:21:40;9.10;;;6.25;;
3747;SDS011;1889;50.058;8.688;2022-09-29T08:24:11;10.55;;;6.33;;
3747;SDS011;1889;50.058;8.688;2022-09-29T08:26:40;8.83;;;6.50;;
3747;SDS011;1889;50.058;8.688;2022-09-29T08:29:10;9.20;;;6.25;;
3747;SDS011;1889;50.058;8.688;2022-09-29T08:31:40;11.97;;;7.08;;
3747;SDS011;1889;50.058;8.688;2022-09-29T08:34:10;8.83;;;5.90;;
3747;SDS011;1889;50.058;8.688;2022-09-29T08:36:39;7.70;;;6.05;;
3747;SDS011;1889;50.058;8.688;2022-09-29T08:39:09;8.73;;;6.08;;
3747;SDS011;1889;50.058;8.688;2022-09-29T08:41:52;7.03;;;5.75;;
3747;SDS011;1889;50.058;8.688;2022-09-29T08:44:44;8.95;;;5.95;;
3747;SDS011;1889;50.058;8.688;2022-09-29T08:47:24;9.65;;;6.62;;
3747;SDS011;1889;50.058;8.688;2022-09-29T08:50:03;7.70;;;5.85;;
3747;SDS011;1889;50.058;8.688;2022-09-29T08:52:33;8.40;;;6.30;;
3747;SDS011;1889;50.058;8.688;2022-09-29T08:57:45;8.03;;;5.92;;
3747;SDS011;1889;50.058;8.688;2022-09-29T09:00:17;10.80;;;6.05;;
3747;SDS011;1889;50.058;8.688;2022-09-29T09:11:12;7.62;;;6.03;;
3747;SDS011;1889;50.058;8.688;2022-09-29T09:14:56;8.83;;;6.10;;
3747;SDS011;1889;50.058;8.688;2022-09-29T09:16:58;9.15;;;6.33;;
3747;SDS011;1889;50.058;8.688;2022-09-29T09:20:02;8.40;;;6.12;;
3747;SDS011;1889;50.058;8.688;2022-09-29T09:22:37;8.53;;;6.33;;
3747;SDS011;1889;50.058;8.688;2022-09-29T09:25:23;9.18;;;6.35;;
3747;SDS011;1889;50.058;8.688;2022-09-29T09:30:34;8.10;;;5.83;;
3747;SDS011;1889;50.058;8.688;2022-09-29T09:33:03;8.88;;;5.95;;
3747;SDS011;1889;50.058;8.688;2022-09-29T09:35:36;7.45;;;5.35;;
3747;SDS011;1889;50.058;8.688;2022-09-29T09:38:17;8.78;;;5.78;;
3747;SDS011;1889;50.058;8.688;2022-09-29T09:40:44;8.28;;;5.83;;
3747;SDS011;1889;50.058;8.688;2022-09-29T09:43:16;10.63;;;7.00;;
3747;SDS011;1889;50.058;8.688;2022-09-29T09:49:09;8.85;;;5.85;;
3747;SDS011;1889;50.058;8.688;2022-09-29T09:54:32;9.90;;;6.58;;
3747;SDS011;1889;50.058;8.688;2022-09-29T10:02:45;7.83;;;5.60;;
3747;SDS011;1889;50.058;8.688;2022-09-29T10:05:20;9.05;;;6.58;;
3747;SDS011;1889;50.058;8.688;2022-09-29T10:08:08;10.38;;;6.50;;
3747;SDS011;1889;50.058;8.688;2022-09-29T10:10:54;9.03;;;6.47;;
3747;SDS011;1889;50.058;8.688;2022-09-29T10:13:26;7.67;;;5.97;;
3747;SDS011;1889;50.058;8.688;2022-09-29T10:16:00;8.23;;;6.15;;
3747;SDS011;1889;50.058;8.688;2022-09-29T10:18:38;8.58;;;6.08;;
3747;SDS011;1889;50.058;8.688;2022-09-29T10:21:33;8.43;;;6.25;;
3747;SDS011;1889;50.058;8.688;2022-09-29T10:24:27;8.00;;;6.35;;
3747;SDS011;1889;50.058;8.688;2022-09-29T10:26:57;9.38;;;6.10;;
3747;SDS011;1889;50.058;8.688;2022-09-29T10:29:31;9.33;;;5.95;;
3747;SDS011;1889;50.058;8.688;2022-09-29T10:35:01;9.83;;;6.87;;
3747;SDS011;1889;50.058;8.688;2022-09-29T10:37:34;8.45;;;7.10;;
3747;SDS011;1889;50.058;8.688;2022-09-29T10:42:41;8.90;;;6.30;;
3747;SDS011;1889;50.058;8.688;2022-09-29T10:45:20;8.55;;;6.60;;
3747;SDS011;1889;50.058;8.688;2022-09-29T10:50:36;8.53;;;5.80;;
3747;SDS011;1889;50.058;8.688;2022-09-29T10:53:36;9.10;;;6.35;;
3747;SDS011;1889;50.058;8.688;2022-09-29T10:56:09;8.30;;;6.12;;
3747;SDS011;1889;50.058;8.688;2022-09-29T10:58:40;7.20;;;6.00;;
3747;SDS011;1889;50.058;8.688;2022-09-29T11:01:12;7.00;;;5.28;;
3747;SDS011;1889;50.058;8.688;2022-09-29T11:03:49;8.15;;;5.47;;
3747;SDS011;1889;50.058;8.688;2022-09-29T11:06:28;7.80;;;5.58;;
3747;SDS011;1889;50.058;8.688;2022-09-29T11:08:55;6.95;;;5.37;;
3747;SDS011;1889;50.058;8.688;2022-09-29T11:11:35;7.05;;;5.70;;
3747;SDS011;1889;50.058;8.688;2022-09-29T11:14:11;8.08;;;5.35;;
3747;SDS011;1889;50.058;8.688;2022-09-29T11:17:02;7.20;;;5.30;;
3747;SDS011;1889;50.058;8.688;2022-09-29T11:19:28;7.55;;;5.80;;
3747;SDS011;1889;50.058;8.688;2022-09-29T11:24:37;7.03;;;5.03;;
3747;SDS011;1889;50.058;8.688;2022-09-29T11:27:20;6.80;;;5.35;;
3747;SDS011;1889;50.058;8.688;2022-09-29T11:30:08;6.62;;;5.40;;
3747;SDS011;1889;50.058;8.688;2022-09-29T11:43:54;5.90;;;4.15;;
3747;SDS011;1889;50.058;8.688;2022-09-29T11:49:14;5.10;;;4.10;;
3747;SDS011;1889;50.058;8.688;2022-09-29T11:54:45;4.25;;;3.65;;
3747;SDS011;1889;50.058;8.688;2022-09-29T12:00:19;5.03;;;3.98;;
3747;SDS011;1889;50.058;8.688;2022-09-29T12:08:19;4.53;;;3.87;;
3747;SDS011;1889;50.058;8.688;2022-09-29T12:10:53;4.62;;;3.47;;
3747;SDS011;1889;50.058;8.688;2022-09-29T12:18:46;5.95;;;3.60;;
3747;SDS011;1889;50.058;8.688;2022-09-29T12:21:25;5.53;;;3.87;;
3747;SDS011;1889;50.058;8.688;2022-09-29T12:23:58;4.17;;;3.60;;
3747;SDS011;1889;50.058;8.688;2022-09-29T12:26:31;4.78;;;3.47;;
3747;SDS011;1889;50.058;8.688;2022-09-29T12:29:21;4.78;;;3.22;;
3747;SDS011;1889;50.058;8.688;2022-09-29T12:31:39;6.30;;;3.92;;
3747;SDS011;1889;50.058;8.688;2022-09-29T12:34:19;4.17;;;3.10;;
3747;SDS011;1889;50.058;8.688;2022-09-29T12:42:47;3.60;;;3.08;;
3747;SDS011;1889;50.058;8.688;2022-09-29T12:45:29;2.65;;;2.30;;
3747;SDS011;1889;50.058;8.688;2022-09-29T12:48:20;3.47;;;2.85;;
3747;SDS011;1889;50.058;8.688;2022-09-29T12:51:11;2.95;;;2.47;;
3747;SDS011;1889;50.058;8.688;2022-09-29T12:54:15;5.33;;;2.20;;
3747;SDS011;1889;50.058;8.688;2022-09-29T12:56:52;2.80;;;2.60;;
3747;SDS011;1889;50.058;8.688;2022-09-29T13:07:53;3.50;;;2.60;;
3747;SDS011;1889;50.058;8.688;2022-09-29T13:10:34;5.72;;;2.65;;
3747;SDS011;1889;50.058;8.688;2022-09-29T13:13:16;3.67;;;2.95;;
3747;SDS011;1889;50.058;8.688;2022-09-29T13:16:05;2.40;;;2.02;;
3747;SDS011;1889;50.058;8.688;2022-09-29T13:21:42;3.25;;;2.62;;
3747;SDS011;1889;50.058;8.688;2022-09-29T13:24:14;3.30;;;2.22;;
3747;SDS011;1889;50.058;8.688;2022-09-29T13:29:44;3.42;;;2.15;;
3747;SDS011;1889;50.058;8.688;2022-09-29T13:32:18;1.85;;;1.75;;
3747;SDS011;1889;50.058;8.688;2022-09-29T13:34:56;1.55;;;1.45;;
3747;SDS011;1889;50.058;8.688;2022-09-29T13:37:31;3.10;;;1.67;;
3747;SDS011;1889;50.058;8.688;2022-09-29T13:40:02;2.92;;;1.85;;
3747;SDS011;1889;50.058;8.688;2022-09-29T13:42:39;2.02;;;1.50;;
3747;SDS011;1889;50.058;8.688;2022-09-29T13:45:13;3.12;;;1.35;;
3747;SDS011;1889;50.058;8.688;2022-09-29T13:47:48;3.87;;;2.02;;
3747;SDS011;1889;50.058;8.688;2022-09-29T13:58:34;1.67;;;1.57;;
3747;SDS011;1889;50.058;8.688;2022-09-29T14:01:09;2.00;;;1.57;;
3747;SDS011;1889;50.058;8.688;2022-09-29T14:03:42;1.95;;;1.60;;
3747;SDS011;1889;50.058;8.688;2022-09-29T14:06:13;1.82;;;1.60;;
3747;SDS011;1889;50.058;8.688;2022-09-29T14:11:37;1.45;;;1.35;;
3747;SDS011;1889;50.058;8.688;2022-09-29T14:14:18;2.20;;;1.55;;
3747;SDS011;1889;50.058;8.688;2022-09-29T14:19:42;1.55;;;1.45;;
3747;SDS011;1889;50.058;8.688;2022-09-29T14:33:14;1.70;;;1.40;;
3747;SDS011;1889;50.058;8.688;2022-09-29T14:35:36;1.55;;;1.30;;
3747;SDS011;1889;50.058;8.688;2022-09-29T14:40:52;1.35;;;1.25;;
3747;SDS011;1889;50.058;8.688;2022-09-29T14:52:56;1.80;;;1.40;;
3747;SDS011;1889;50.058;8.688;2022-09-29T14:58:21;1.15;;;1.00;;
3747;SDS011;1889;50.058;8.688;2022-09-29T15:03:45;2.20;;;1.42;;
3747;SDS011;1889;50.058;8.688;2022-09-29T15:06:27;1.85;;;1.67;;
3747;SDS011;1889;50.058;8.688;2022-09-29T15:08:56;1.52;;;1.22;;
3747;SDS011;1889;50.058;8.688;2022-09-29T15:11:31;1.67;;;1.25;;
3747;SDS011;1889;50.058;8.688;2022-09-29T15:14:21;1.35;;;1.17;;
3747;SDS011;1889;50.058;8.688;2022-09-29T15:17:07;1.67;;;1.47;;
3747;SDS011;1889;50.058;8.688;2022-09-29T15:19:46;1.60;;;1.50;;
3747;SDS011;1889;50.058;8.688;2022-09-29T15:22:28;1.12;;;1.02;;
3747;SDS011;1889;50.058;8.688;2022-09-29T15:27:51;1.30;;;0.98;;
3747;SDS011;1889;50.058;8.688;2022-09-29T15:30:22;1.12;;;0.90;;
3747;SDS011;1889;50.058;8.688;2022-09-29T15:32:52;1.95;;;1.05;;
3747;SDS011;1889;50.058;8.688;2022-09-29T15:35:23;12.98;;;8.00;;
3747;SDS011;1889;50.058;8.688;2022-09-29T15:37:58;4.95;;;3.30;;
3747;SDS011;1889;50.058;8.688;2022-09-29T15:40:27;1.72;;;1.20;;
3747;SDS011;1889;50.058;8.688;2022-09-29T15:42:59;2.05;;;1.00;;
3747;SDS011;1889;50.058;8.688;2022-09-29T15:45:30;2.08;;;0.85;;
3747;SDS011;1889;50.058;8.688;2022-09-29T15:48:00;0.68;;;0.60;;
3747;SDS011;1889;50.058;8.688;2022-09-29T15:50:40;1.98;;;0.80;;
3747;SDS011;1889;50.058;8.688;2022-09-29T15:53:07;0.98;;;0.85;;
3747;SDS011;1889;50.058;8.688;2022-09-29T15:55:38;1.00;;;0.80;;
3747;SDS011;1889;50.058;8.688;2022-09-29T16:00:59;0.88;;;0.88;;
3747;SDS011;1889;50.058;8.688;2022-09-29T16:03:43;1.20;;;1.10;;
3747;SDS011;1889;50.058;8.688;2022-09-29T16:06:32;1.30;;;1.20;;
3747;SDS011;1889;50.058;8.688;2022-09-29T16:09:05;1.30;;;1.10;;
3747;SDS011;1889;50.058;8.688;2022-09-29T16:11:36;1.12;;;1.02;;
3747;SDS011;1889;50.058;8.688;2022-09-29T16:14:08;1.95;;;1.02;;
3747;SDS011;1889;50.058;8.688;2022-09-29T16:16:51;2.45;;;1.10;;
3747;SDS011;1889;50.058;8.688;2022-09-29T16:19:23;1.92;;;1.00;;
3747;SDS011;1889;50.058;8.688;2022-09-29T16:22:03;1.30;;;1.00;;
3747;SDS011;1889;50.058;8.688;2022-09-29T16:24:30;2.55;;;1.30;;
3747;SDS011;1889;50.058;8.688;2022-09-29T16:27:01;2.55;;;1.50;;
3747;SDS011;1889;50.058;8.688;2022-09-29T16:29:37;0.98;;;0.90;;
3747;SDS011;1889;50.058;8.688;2022-09-29T16:38:14;1.32;;;0.80;;
3747;SDS011;1889;50.058;8.688;2022-09-29T16:40:39;1.67;;;1.27;;
3747;SDS011;1889;50.058;8.688;2022-09-29T16:43:27;1.27;;;1.00;;
3747;SDS011;1889;50.058;8.688;2022-09-29T16:45:58;1.65;;;1.10;;
3747;SDS011;1889;50.058;8.688;2022-09-29T16:48:30;1.10;;;1.00;;
3747;SDS011;1889;50.058;8.688;2022-09-29T16:51:02;0.90;;;0.85;;
3747;SDS011;1889;50.058;8.688;2022-09-29T16:53:34;1.30;;;1.02;;
3747;SDS011;1889;50.058;8.688;2022-09-29T16:56:08;1.70;;;1.25;;
3747;SDS011;1889;50.058;8.688;2022-09-29T16:58:39;2.12;;;1.30;;
3747;SDS011;1889;50.058;8.688;2022-09-29T17:01:09;1.67;;;1.12;;
3747;SDS011;1889;50.058;8.688;2022-09-29T17:03:39;1.95;;;1.30;;
3747;SDS011;1889;50.058;8.688;2022-09-29T17:06:09;1.57;;;1.37;;
3747;SDS011;1889;50.058;8.688;2022-09-29T17:08:39;1.77;;;1.32;;
3747;SDS011;1889;50.058;8.688;2022-09-29T17:11:10;1.35;;;1.25;;
3747;SDS011;1889;50.058;8.688;2022-09-29T17:13:39;4.03;;;1.17;;
3747;SDS011;1889;50.058;8.688;2022-09-29T17:16:09;2.40;;;1.40;;
3747;SDS011;1889;50.058;8.688;2022-09-29T17:18:42;4.10;;;1.32;;
3747;SDS011;1889;50.058;8.688;2022-09-29T17:21:11;1.52;;;1.17;;
3747;SDS011;1889;50.058;8.688;2022-09-29T17:23:42;2.02;;;1.32;;
3747;SDS011;1889;50.058;8.688;2022-09-29T17:26:25;1.42;;;1.32;;
3747;SDS011;1889;50.058;8.688;2022-09-29T17:29:14;1.30;;;1.20;;
3747;SDS011;1889;50.058;8.688;2022-09-29T17:31:43;2.20;;;1.47;;
3747;SDS011;1889;50.058;8.688;2022-09-29T17:34:12;1.40;;;1.30;;
3747;SDS011;1889;50.058;8.688;2022-09-29T17:36:43;1.95;;;1.42;;
3747;SDS011;1889;50.058;8.688;2022-09-29T17:39:13;5.12;;;4.62;;
3747;SDS011;1889;50.058;8.688;2022-09-29T17:41:43;3.85;;;3.37;;
3747;SDS011;1889;50.058;8.688;2022-09-29T17:44:14;2.15;;;1.80;;
3747;SDS011;1889;50.058;8.688;2022-09-29T17:46:43;2.30;;;1.45;;
3747;SDS011;1889;50.058;8.688;2022-09-29T17:49:13;1.67;;;1.35;;
3747;SDS011;1889;50.058;8.688;2022-09-29T17:51:44;1.62;;;1.35;;
3747;SDS011;1889;50.058;8.688;2022-09-29T17:54:14;2.02;;;1.45;;
3747;SDS011;1889;50.058;8.688;2022-09-29T17:56:44;1.42;;;1.32;;
3747;SDS011;1889;50.058;8.688;2022-09-29T17:59:13;3.83;;;1.77;;
3747;SDS011;1889;50.058;8.688;2022-09-29T18:01:43;2.33;;;1.77;;
3747;SDS011;1889;50.058;8.688;2022-09-29T18:04:12;5.55;;;1.65;;
3747;SDS011;1889;50.058;8.688;2022-09-29T18:06:42;1.57;;;1.37;;
3747;SDS011;1889;50.058;8.688;2022-09-29T18:09:17;1.72;;;1.27;;
3747;SDS011;1889;50.058;8.688;2022-09-29T18:11:43;1.57;;;1.25;;
3747;SDS011;1889;50.058;8.688;2022-09-29T18:14:14;1.92;;;1.35;;
3747;SDS011;1889;50.058;8.688;2022-09-29T18:16:43;2.62;;;1.32;;
3747;SDS011;1889;50.058;8.688;2022-09-29T18:19:14;3.17;;;1.40;;
3747;SDS011;1889;50.058;8.688;2022-09-29T18:21:44;2.65;;;1.65;;
3747;SDS011;1889;50.058;8.688;2022-09-29T18:24:13;1.60;;;1.50;;
3747;SDS011;1889;50.058;8.688;2022-09-29T18:26:43;2.58;;;1.65;;
3747;SDS011;1889;50.058;8.688;2022-09-29T18:29:13;1.45;;;1.27;;